createdAt,value
2023-02-13T00:02:05.289Z,101167.42
2023-02-13T00:04:35.414Z,101169.02
2023-02-13T00:07:04.244Z,101162.34
2023-02-13T00:09:32.470Z,101169.30
2023-02-13T00:12:06.842Z,101164.55
2023-02-13T00:14:41.876Z,101167.52
2023-02-13T00:17:15.792Z,101172.72
2023-02-13T00:19:45.926Z,101170.20
2023-02-13T00:22:16.967Z,101172.54
2023-02-13T00:24:45.157Z,101167.90
2023-02-13T00:27:14.052Z,101169.01
2023-02-13T00:29:43.207Z,101169.39
2023-02-13T00:32:11.724Z,101174.63
2023-02-13T00:34:41.617Z,101177.08
2023-02-13T00:37:15.036Z,101174.09
2023-02-13T00:39:45.623Z,101178.80
2023-02-13T00:42:13.785Z,101179.60
2023-02-13T00:44:47.192Z,101183.72
2023-02-13T00:47:16.086Z,101182.10
2023-02-13T00:49:46.415Z,101181.26
2023-02-13T00:52:15.171Z,101187.02
2023-02-13T00:54:46.946Z,101184.16
2023-02-13T00:57:35.181Z,101177.63
2023-02-13T01:00:09.309Z,101176.84
2023-02-13T01:02:39.073Z,101172.17
2023-02-13T01:05:08.481Z,101176.73
2023-02-13T01:07:37.341Z,101174.18
2023-02-13T01:10:11.751Z,101171.94
2023-02-13T01:12:41.306Z,101173.75
2023-02-13T01:15:15.095Z,101175.28
2023-02-13T01:17:44.665Z,101173.93
2023-02-13T01:20:14.006Z,101176.89
2023-02-13T01:22:46.025Z,101182.73
2023-02-13T01:25:18.528Z,101183.71
2023-02-13T01:27:47.594Z,101182.52
2023-02-13T01:30:20.809Z,101181.61
2023-02-13T01:32:53.683Z,101182.05
2023-02-13T01:35:22.255Z,101176.45
2023-02-13T01:44:45.689Z,101183.30
2023-02-13T01:47:32.471Z,101183.77
2023-02-13T01:50:17.966Z,101180.98
2023-02-13T01:52:51.345Z,101182.45
2023-02-13T01:55:24.780Z,101187.11
2023-02-13T01:58:07.247Z,101190.70
2023-02-13T02:00:40.846Z,101185.15
2023-02-13T02:03:14.761Z,101191.11
2023-02-13T02:05:43.651Z,101195.95
2023-02-13T02:08:13.766Z,101197.75
2023-02-13T02:10:42.358Z,101197.21
2023-02-13T02:13:26.699Z,101199.86
2023-02-13T02:15:58.560Z,101203.54
2023-02-13T02:18:31.959Z,101207.56
2023-02-13T02:21:09.901Z,101214.40
2023-02-13T02:24:06.212Z,101221.61
2023-02-13T02:26:57.235Z,101225.73
2023-02-13T02:30:03.466Z,101232.30
2023-02-13T02:32:38.184Z,101232.45
2023-02-13T02:35:24.502Z,101233.09
2023-02-13T02:37:53.801Z,101234.11
2023-02-13T02:40:29.578Z,101233.92
2023-02-13T02:43:24.273Z,101236.40
2023-02-13T02:46:23.566Z,101235.14
2023-02-13T02:49:38.552Z,101235.51
2023-02-13T02:52:15.098Z,101238.48
2023-02-13T02:55:07.707Z,101234.67
2023-02-13T02:58:02.029Z,101238.01
2023-02-13T03:00:49.498Z,101236.40
2023-02-13T03:03:42.613Z,101235.36
2023-02-13T03:06:23.679Z,101235.51
2023-02-13T03:09:18.798Z,101233.45
2023-02-13T03:12:11.127Z,101236.88
2023-02-13T03:14:39.627Z,101235.48
2023-02-13T03:17:31.782Z,101234.24
2023-02-13T03:20:19.283Z,101232.39
2023-02-13T03:23:14.194Z,101230.89
2023-02-13T03:25:48.202Z,101228.73
2023-02-13T03:28:51.201Z,101233.45
2023-02-13T03:31:31.018Z,101237.48
2023-02-13T03:34:11.588Z,101240.35
2023-02-13T03:37:08.314Z,101244.40
2023-02-13T03:39:52.065Z,101248.94
2023-02-13T03:42:43.094Z,101250.30
2023-02-13T03:45:51.948Z,101251.81
2023-02-13T03:48:48.804Z,101252.36
2023-02-13T03:51:44.667Z,101258.02
2023-02-13T03:54:21.280Z,101262.31
2023-02-13T03:57:08.871Z,101262.48
2023-02-13T03:59:46.156Z,101262.05
2023-02-13T04:02:17.241Z,101262.96
2023-02-13T04:05:14.726Z,101265.92
2023-02-13T04:07:43.102Z,101263.75
2023-02-13T04:10:16.539Z,101263.11
2023-02-13T04:13:12.001Z,101264.54
2023-02-13T04:15:47.413Z,101271.57
2023-02-13T04:18:15.735Z,101278.20
2023-02-13T04:20:44.114Z,101278.59
2023-02-13T04:23:13.042Z,101281.39
2023-02-13T04:25:43.241Z,101283.24
2023-02-13T04:28:11.384Z,101284.70
2023-02-13T04:30:39.991Z,101289.70
2023-02-13T04:33:08.318Z,101289.16
2023-02-13T04:35:37.085Z,101289.54
2023-02-13T04:38:05.303Z,101286.05
2023-02-13T04:40:35.915Z,101283.56
2023-02-13T04:43:04.134Z,101273.03
2023-02-13T04:45:32.966Z,101269.94
2023-02-13T04:48:01.280Z,101262.67
2023-02-13T04:50:29.676Z,101256.53
2023-02-13T04:52:58.710Z,101257.13
2023-02-13T04:55:32.745Z,101259.58
2023-02-13T04:58:00.992Z,101264.16
2023-02-13T05:00:30.143Z,101266.48
2023-02-13T05:03:10.384Z,101270.20
2023-02-13T05:05:44.863Z,101268.36
2023-02-13T05:08:15.973Z,101271.41
2023-02-13T05:10:50.326Z,101271.54
2023-02-13T05:13:22.336Z,101266.89
2023-02-13T05:15:52.718Z,101268.54
2023-02-13T05:18:21.115Z,101274.97
2023-02-13T05:21:09.247Z,101274.80
2023-02-13T05:23:37.638Z,101282.06
2023-02-13T05:26:05.860Z,101281.66
2023-02-13T05:28:53.793Z,101288.80
2023-02-13T05:31:22.231Z,101290.45
2023-02-13T05:33:50.850Z,101289.54
2023-02-13T05:36:19.335Z,101286.63
2023-02-13T05:38:47.982Z,101284.44
2023-02-13T05:41:16.649Z,101285.14
2023-02-13T05:43:44.981Z,101284.34
2023-02-13T05:46:13.322Z,101288.46
2023-02-13T05:48:41.571Z,101291.71
2023-02-13T05:51:10.743Z,101288.30
2023-02-13T05:53:39.128Z,101290.91
2023-02-13T05:56:07.482Z,101293.37
2023-02-13T05:58:36.481Z,101296.14
2023-02-13T06:01:05.003Z,101297.88
2023-02-13T06:08:07.058Z,101294.20
2023-02-13T06:10:38.038Z,101298.96
2023-02-13T06:13:06.437Z,101300.05
2023-02-13T06:15:34.658Z,101304.14
2023-02-13T06:18:08.249Z,101305.61
2023-02-13T06:20:37.126Z,101305.05
2023-02-13T06:23:05.357Z,101302.48
2023-02-13T06:25:37.060Z,101301.17
2023-02-13T06:28:06.580Z,101292.45
2023-02-13T06:30:35.440Z,101291.38
2023-02-13T06:33:04.949Z,101289.73
2023-02-13T06:35:33.205Z,101293.27
2023-02-13T06:38:01.411Z,101287.86
2023-02-13T06:40:30.175Z,101281.81
2023-02-13T06:43:01.439Z,101286.46
2023-02-13T06:45:29.923Z,101287.20
2023-02-13T06:47:58.152Z,101285.92
2023-02-13T06:50:27.028Z,101284.63
2023-02-13T06:52:55.529Z,101282.08
2023-02-13T06:55:24.060Z,101279.14
2023-02-13T06:57:52.973Z,101271.33
2023-02-13T07:00:22.101Z,101268.05
2023-02-13T07:02:50.970Z,101269.17
2023-02-13T07:05:19.311Z,101268.13
2023-02-13T07:07:49.481Z,101267.50
2023-02-13T07:10:25.494Z,101267.06
2023-02-13T07:13:04.914Z,101261.41
2023-02-13T07:15:34.389Z,101256.84
2023-02-13T07:18:04.119Z,101263.70
2023-02-13T07:20:32.873Z,101264.16
2023-02-13T07:23:02.390Z,101267.27
2023-02-13T07:25:31.725Z,101266.05
2023-02-13T07:28:04.834Z,101264.91
2023-02-13T07:30:34.089Z,101271.84
2023-02-13T07:33:02.719Z,101273.56
2023-02-13T07:35:32.151Z,101277.35
2023-02-13T07:38:00.957Z,101274.55
2023-02-13T07:40:29.701Z,101270.52
2023-02-13T07:43:00.448Z,101272.22
2023-02-13T07:45:28.738Z,101272.52
2023-02-13T07:47:57.023Z,101276.63
2023-02-13T07:50:25.431Z,101280.69
2023-02-13T07:53:01.151Z,101275.63
2023-02-13T07:55:29.794Z,101282.24
2023-02-13T07:57:58.745Z,101281.69
2023-02-13T08:00:27.594Z,101286.77
2023-02-13T08:02:56.073Z,101281.25
2023-02-13T08:05:24.200Z,101275.05
2023-02-13T08:07:52.705Z,101269.96
2023-02-13T08:10:44.050Z,101264.78
2023-02-13T08:13:12.869Z,101259.85
2023-02-13T08:15:41.296Z,101257.08
2023-02-13T08:18:09.798Z,101251.98
2023-02-13T08:20:38.255Z,101242.74
2023-02-13T08:23:07.498Z,101244.88
2023-02-13T08:25:38.040Z,101243.38
2023-02-13T08:28:06.462Z,101240.25
2023-02-13T08:30:35.112Z,101242.29
2023-02-13T08:33:05.940Z,101242.96
2023-02-13T08:35:35.196Z,101231.41
2023-02-13T08:38:05.274Z,101229.13
2023-02-13T08:40:33.825Z,101226.15
2023-02-13T08:43:02.699Z,101236.60
2023-02-13T08:45:39.465Z,101236.77
2023-02-13T08:48:07.985Z,101236.21
2023-02-13T08:50:37.493Z,101227.89
2023-02-13T08:53:05.862Z,101229.80
2023-02-13T08:55:34.306Z,101228.63
2023-02-13T08:58:03.243Z,101226.77
2023-02-13T09:00:32.091Z,101216.75
2023-02-13T09:03:02.632Z,101208.53
2023-02-13T09:05:32.907Z,101207.70
2023-02-13T09:08:03.852Z,101199.52
2023-02-13T09:10:33.109Z,101193.12
2023-02-13T09:13:01.591Z,101192.23
2023-02-13T09:15:30.662Z,101187.65
2023-02-13T09:17:59.402Z,101183.05
2023-02-13T09:20:27.693Z,101180.68
2023-02-13T09:22:56.704Z,101169.10
2023-02-13T09:25:26.066Z,101171.15
2023-02-13T09:27:54.461Z,101162.50
2023-02-13T09:30:26.156Z,101167.69
2023-02-13T09:32:55.106Z,101165.43
2023-02-13T09:35:23.682Z,101167.94
2023-02-13T09:37:52.050Z,101162.93
2023-02-13T09:40:45.854Z,101162.79
2023-02-13T09:43:17.731Z,101160.77
2023-02-13T09:45:46.680Z,101165.80
2023-02-13T09:48:19.684Z,101163.29
2023-02-13T09:50:47.951Z,101160.78
2023-02-13T09:53:22.488Z,101159.43
2023-02-13T09:56:11.065Z,101158.36
2023-02-13T09:58:50.056Z,101157.33
2023-02-13T10:01:31.983Z,101149.61
2023-02-13T10:04:30.473Z,101141.96
2023-02-13T10:07:24.051Z,101128.68
2023-02-13T10:10:08.516Z,101129.84
2023-02-13T10:13:03.658Z,101124.47
2023-02-13T10:15:50.037Z,101122.73
2023-02-13T10:18:24.175Z,101122.17
2023-02-13T10:20:54.520Z,101121.70
2023-02-13T10:23:33.039Z,101121.03
2023-02-13T10:26:06.063Z,101114.79
2023-02-13T10:28:44.904Z,101108.29
2023-02-13T10:31:16.393Z,101111.80
2023-02-13T10:33:49.909Z,101108.81
2023-02-13T10:36:24.933Z,101099.72
2023-02-13T10:38:56.868Z,101094.56
2023-02-13T10:41:34.781Z,101098.65
2023-02-13T10:44:23.796Z,101095.98
2023-02-13T10:46:57.068Z,101097.51
2023-02-13T10:49:29.415Z,101088.17
2023-02-13T10:52:09.157Z,101088.03
2023-02-13T10:54:52.328Z,101084.98
2023-02-13T10:57:36.646Z,101090.17
2023-02-13T11:00:12.169Z,101091.88
2023-02-13T11:02:43.549Z,101086.98
2023-02-13T11:05:16.860Z,101087.23
2023-02-13T11:07:47.887Z,101086.80
2023-02-13T11:10:24.916Z,101085.50
2023-02-13T11:13:00.968Z,101074.95
2023-02-13T11:15:34.859Z,101079.02
2023-02-13T11:18:19.012Z,101081.34
2023-02-13T11:20:50.518Z,101078.96
2023-02-13T11:23:44.982Z,101071.31
2023-02-13T11:26:35.150Z,101065.45
2023-02-13T11:29:28.254Z,101058.80
2023-02-13T11:32:29.754Z,101061.27
2023-02-13T11:35:31.952Z,101058.56
2023-02-13T11:38:33.718Z,101060.92
2023-02-13T11:41:16.489Z,101045.75
2023-02-13T11:43:51.884Z,101037.75
2023-02-13T11:46:26.936Z,101041.23
2023-02-13T11:49:06.891Z,101038.04
2023-02-13T11:51:48.603Z,101028.60
2023-02-13T11:54:45.901Z,101035.43
2023-02-13T11:57:41.935Z,101028.96
2023-02-13T12:00:42.950Z,101027.14
2023-02-13T12:03:31.083Z,101019.83
2023-02-13T12:13:48.088Z,100999.29
2023-02-13T12:16:40.444Z,100995.03
2023-02-13T12:19:13.809Z,100981.98
2023-02-13T12:21:49.011Z,100978.70
2023-02-13T12:24:42.021Z,100976.13
2023-02-13T12:27:30.055Z,100973.05
2023-02-13T12:30:13.682Z,100968.37
2023-02-13T12:32:58.864Z,100973.55
2023-02-13T12:36:21.613Z,100969.36
2023-02-13T12:39:08.840Z,100971.27
2023-02-13T12:42:14.397Z,100966.66
2023-02-13T12:44:57.805Z,100963.89
2023-02-13T12:47:29.924Z,100971.15
2023-02-13T12:50:22.022Z,100964.29
2023-02-13T12:53:12.837Z,100966.42
2023-02-13T12:56:19.782Z,100974.23
2023-02-13T12:59:27.004Z,100966.67
2023-02-13T13:01:59.380Z,100960.92
2023-02-13T13:04:34.402Z,100953.89
2023-02-13T13:07:20.506Z,100955.92
2023-02-13T13:09:54.675Z,100951.89
2023-02-13T13:12:44.600Z,100951.71
2023-02-13T13:15:23.896Z,100946.28
2023-02-13T13:17:52.354Z,100950.14
2023-02-13T13:20:42.027Z,100954.30
2023-02-13T13:23:24.906Z,100935.25
2023-02-13T13:25:56.360Z,100929.36
2023-02-13T13:28:42.354Z,100925.79
2023-02-13T13:31:10.944Z,100930.45
2023-02-13T13:33:44.534Z,100928.22
2023-02-13T13:36:41.584Z,100930.96
2023-02-13T13:39:33.224Z,100922.33
2023-02-13T13:42:07.223Z,100919.73
2023-02-13T13:44:41.537Z,100912.38
2023-02-13T13:47:40.942Z,100908.34
2023-02-13T13:50:26.554Z,100914.61
2023-02-13T13:53:11.703Z,100913.99
2023-02-13T13:56:10.718Z,100914.23
2023-02-13T13:58:46.956Z,100916.18
2023-02-13T14:01:18.362Z,100912.98
2023-02-13T14:04:32.429Z,100914.27
2023-02-13T14:07:16.498Z,100902.66
2023-02-13T14:09:45.649Z,100898.09
2023-02-13T14:12:25.407Z,100897.98
2023-02-13T14:14:58.952Z,100887.62
2023-02-13T14:17:45.634Z,100886.01
2023-02-13T14:20:26.930Z,100883.80
2023-02-13T14:22:55.617Z,100878.73
2023-02-13T14:25:28.206Z,100872.46
2023-02-13T14:27:58.679Z,100877.10
2023-02-13T14:30:31.771Z,100870.98
2023-02-13T14:33:01.815Z,100872.17
2023-02-13T14:35:31.257Z,100867.26
2023-02-13T14:38:04.032Z,100861.73
2023-02-13T14:40:49.259Z,100861.98
2023-02-13T14:43:23.706Z,100859.59
2023-02-13T14:45:58.139Z,100863.73
2023-02-13T14:48:37.920Z,100864.16
2023-02-13T14:51:06.308Z,100865.86
2023-02-13T14:54:05.350Z,100864.16
2023-02-13T14:56:35.158Z,100850.29
2023-02-13T14:59:39.194Z,100852.96
2023-02-13T15:02:23.245Z,100848.20
2023-02-13T15:05:20.145Z,100843.48
2023-02-13T15:07:51.128Z,100836.28
2023-02-13T15:10:47.312Z,100831.02
2023-02-13T15:13:18.730Z,100840.49
2023-02-13T15:16:19.712Z,100827.67
2023-02-13T15:18:49.948Z,100821.56
2023-02-13T15:21:22.863Z,100821.59
2023-02-13T15:23:55.653Z,100822.45
2023-02-13T15:26:26.610Z,100821.06
2023-02-13T15:29:27.778Z,100821.73
2023-02-13T15:32:00.337Z,100826.75
2023-02-13T15:34:32.446Z,100834.64
2023-02-13T15:37:01.260Z,100838.81
2023-02-13T15:39:31.430Z,100842.29
2023-02-13T15:42:01.494Z,100837.48
2023-02-13T15:44:35.038Z,100836.08
2023-02-13T15:47:08.335Z,100832.93
2023-02-13T15:49:40.249Z,100834.02
2023-02-13T15:52:18.502Z,100836.91
2023-02-13T15:54:52.869Z,100835.64
2023-02-13T15:57:21.473Z,100836.27
2023-02-13T15:59:49.827Z,100829.80
2023-02-13T16:02:24.189Z,100823.95
2023-02-13T16:04:53.664Z,100826.45
2023-02-13T16:07:56.334Z,100817.09
2023-02-13T16:10:32.750Z,100817.48
2023-02-13T16:13:06.336Z,100808.31
2023-02-13T16:15:41.670Z,100800.48
2023-02-13T16:18:17.580Z,100798.14
2023-02-13T16:20:45.985Z,100794.08
2023-02-13T16:23:17.407Z,100794.92
2023-02-13T16:25:45.967Z,100793.31
2023-02-13T16:28:17.743Z,100788.95
2023-02-13T16:30:47.502Z,100787.80
2023-02-13T16:33:16.105Z,100785.11
2023-02-13T16:35:53.010Z,100788.61
2023-02-13T16:38:30.308Z,100783.70
2023-02-13T16:41:22.392Z,100770.19
2023-02-13T16:43:57.148Z,100768.95
2023-02-13T16:46:35.067Z,100764.10
2023-02-13T16:49:09.622Z,100755.96
2023-02-13T16:51:51.498Z,100753.81
2023-02-13T16:54:26.322Z,100743.61
2023-02-13T16:56:54.525Z,100748.03
2023-02-13T16:59:29.539Z,100756.86
2023-02-13T17:02:23.353Z,100751.50
2023-02-13T17:04:58.621Z,100744.86
2023-02-13T17:07:29.102Z,100744.34
2023-02-13T17:10:05.233Z,100743.96
2023-02-13T17:12:38.648Z,100743.34
2023-02-13T17:15:12.560Z,100750.73
2023-02-13T17:17:40.942Z,100748.51
2023-02-13T17:20:19.234Z,100745.61
2023-02-13T17:22:50.390Z,100744.77
2023-02-13T17:25:28.756Z,100745.86
2023-02-13T17:27:58.791Z,100749.27
2023-02-13T17:30:32.022Z,100744.70
2023-02-13T17:33:07.313Z,100749.58
2023-02-13T17:35:37.876Z,100747.40
2023-02-13T17:38:09.758Z,100747.27
2023-02-13T17:40:42.274Z,100743.71
2023-02-13T17:43:11.826Z,100748.97
2023-02-13T17:45:40.195Z,100740.49
2023-02-13T17:48:08.937Z,100748.04
2023-02-13T17:50:39.349Z,100738.49
2023-02-13T17:53:11.953Z,100736.91
2023-02-13T17:55:40.519Z,100737.48
2023-02-13T17:58:10.317Z,100739.30
2023-02-13T18:00:39.996Z,100740.77
2023-02-13T18:03:08.487Z,100733.48
2023-02-13T18:05:37.555Z,100730.84
2023-02-13T18:08:05.889Z,100732.05
2023-02-13T18:10:37.767Z,100725.66
2023-02-13T18:13:08.064Z,100722.00
2023-02-13T18:15:40.114Z,100719.09
2023-02-13T18:18:08.443Z,100711.98
2023-02-13T18:20:37.011Z,100706.63
2023-02-13T18:23:08.507Z,100708.90
2023-02-13T18:25:37.731Z,100717.96
2023-02-13T18:28:06.022Z,100717.75
2023-02-13T18:30:34.599Z,100717.36
2023-02-13T18:33:05.254Z,100724.58
2023-02-13T18:35:37.798Z,100730.79
2023-02-13T18:38:11.681Z,100722.41
2023-02-13T18:40:40.396Z,100716.37
2023-02-13T18:43:12.095Z,100714.81
2023-02-13T18:45:40.803Z,100716.37
2023-02-13T18:48:09.768Z,100706.66
2023-02-13T18:50:42.159Z,100704.35
2023-02-13T18:53:10.382Z,100697.07
2023-02-13T18:55:39.520Z,100692.59
2023-02-13T18:58:07.867Z,100685.98
2023-02-13T19:00:36.271Z,100687.22
2023-02-13T19:03:04.953Z,100689.77
2023-02-13T19:05:34.281Z,100682.23
2023-02-13T19:08:06.104Z,100682.55
2023-02-13T19:10:35.214Z,100679.64
2023-02-13T19:13:04.409Z,100683.61
2023-02-13T19:15:32.962Z,100677.59
2023-02-13T19:18:01.358Z,100674.35
2023-02-13T19:20:35.198Z,100676.34
2023-02-13T19:23:03.611Z,100673.67
2023-02-13T19:25:31.858Z,100668.40
2023-02-13T19:28:00.831Z,100667.86
2023-02-13T19:30:34.639Z,100667.80
2023-02-13T19:33:03.430Z,100669.27
2023-02-13T19:35:33.042Z,100668.42
2023-02-13T19:38:07.138Z,100667.48
2023-02-13T19:48:55.823Z,100634.52
2023-02-13T19:51:26.262Z,100633.78
2023-02-13T19:54:01.981Z,100632.55
2023-02-13T19:56:31.388Z,100625.34
2023-02-13T19:58:59.890Z,100620.24
2023-02-13T20:01:33.267Z,100611.66
2023-02-13T20:04:02.106Z,100606.66
2023-02-13T20:06:32.705Z,100606.30
2023-02-13T20:09:02.079Z,100600.98
2023-02-13T20:11:30.694Z,100588.44
2023-02-13T20:14:00.974Z,100583.60
2023-02-13T20:16:38.298Z,100575.07
2023-02-13T20:19:12.144Z,100569.44
2023-02-13T20:21:41.771Z,100560.48
2023-02-13T20:24:10.592Z,100555.41
2023-02-13T20:26:39.753Z,100554.90
2023-02-13T20:29:09.384Z,100552.22
2023-02-13T20:31:42.950Z,100554.92
2023-02-13T20:34:11.758Z,100558.08
2023-02-13T20:36:42.592Z,100547.52
2023-02-13T20:39:11.532Z,100539.95
2023-02-13T20:41:46.096Z,100537.11
2023-02-13T20:44:16.818Z,100540.42
2023-02-13T20:46:45.427Z,100541.23
2023-02-13T20:49:19.260Z,100536.10
2023-02-13T20:51:48.765Z,100530.92
2023-02-13T20:54:17.559Z,100529.63
2023-02-13T20:56:47.828Z,100530.23
2023-02-13T20:59:16.282Z,100521.69
2023-02-13T21:01:45.867Z,100510.41
2023-02-13T21:04:19.278Z,100517.27
2023-02-13T21:06:48.597Z,100513.99
2023-02-13T21:09:16.809Z,100501.03
2023-02-13T21:11:46.607Z,100497.80
2023-02-13T21:14:15.613Z,100500.23
2023-02-13T21:16:44.168Z,100497.53
2023-02-13T21:19:15.238Z,100486.14
2023-02-13T21:21:44.452Z,100485.02
2023-02-13T21:24:15.377Z,100482.08
2023-02-13T21:26:46.565Z,100477.88
2023-02-13T21:29:15.130Z,100471.30
2023-02-13T21:31:45.218Z,100468.92
2023-02-13T21:34:14.115Z,100471.67
2023-02-13T21:36:44.935Z,100464.67
2023-02-13T21:39:13.454Z,100460.07
2023-02-13T21:41:43.359Z,100463.31
2023-02-13T21:44:16.055Z,100468.48
2023-02-13T21:46:46.394Z,100478.12
2023-02-13T21:49:18.849Z,100471.99
2023-02-13T21:51:47.272Z,100477.10
2023-02-13T21:54:35.563Z,100464.98
2023-02-13T21:57:04.410Z,100456.23
2023-02-13T21:59:33.169Z,100461.50
2023-02-13T22:02:03.059Z,100462.51
2023-02-13T22:04:31.806Z,100459.69
2023-02-13T22:06:59.911Z,100460.55
2023-02-13T22:09:28.265Z,100455.88
2023-02-13T22:11:56.596Z,100454.20
2023-02-13T22:14:25.999Z,100456.60
2023-02-13T22:16:54.621Z,100458.42
2023-02-13T22:19:26.456Z,100453.63
2023-02-13T22:21:54.776Z,100449.38
2023-02-13T22:24:23.142Z,100443.52
2023-02-13T22:26:51.373Z,100428.95
2023-02-13T22:29:21.787Z,100421.39
2023-02-13T22:31:50.432Z,100418.35
2023-02-13T22:34:19.732Z,100410.33
2023-02-13T22:36:48.068Z,100407.20
2023-02-13T22:39:16.609Z,100403.91
2023-02-13T22:41:45.932Z,100402.69
2023-02-13T22:44:14.326Z,100403.95
2023-02-13T22:46:43.082Z,100397.13
2023-02-13T22:49:11.313Z,100389.12
2023-02-13T22:51:40.557Z,100391.36
2023-02-13T22:54:10.391Z,100384.26
2023-02-13T22:56:38.624Z,100377.64
2023-02-13T22:59:07.637Z,100368.94
2023-02-13T23:01:41.008Z,100357.86
2023-02-13T23:04:09.454Z,100354.67
2023-02-13T23:06:37.847Z,100347.13
2023-02-13T23:09:06.061Z,100341.35
2023-02-13T23:11:52.856Z,100336.01
2023-02-13T23:14:25.239Z,100334.34
2023-02-13T23:17:17.046Z,100329.72
2023-02-13T23:19:48.057Z,100325.34
2023-02-13T23:22:16.487Z,100321.39
2023-02-13T23:24:44.689Z,100323.06
2023-02-13T23:27:13.144Z,100320.63
2023-02-13T23:29:41.367Z,100304.88
2023-02-13T23:32:14.766Z,100290.52
2023-02-13T23:34:48.661Z,100282.02
2023-02-13T23:37:22.559Z,100277.52
2023-02-13T23:39:50.845Z,100280.42
2023-02-13T23:42:19.100Z,100276.09
2023-02-13T23:44:47.378Z,100264.96
2023-02-13T23:47:15.668Z,100256.89
2023-02-13T23:49:43.913Z,100257.77
2023-02-13T23:52:22.343Z,100248.47
2023-02-13T23:54:50.528Z,100251.92
2023-02-13T23:57:30.542Z,100257.73
2023-02-13T23:59:58.689Z,100249.09
